createdAt,value
2023-01-17T00:00:04.708Z,25.20
2023-01-17T00:02:35.663Z,25.10
2023-01-17T00:05:24.666Z,25.09
2023-01-17T00:08:13.013Z,25.07
2023-01-17T00:10:43.706Z,25.06
2023-01-17T00:13:13.806Z,25.06
2023-01-17T00:15:43.806Z,25.00
2023-01-17T00:18:14.114Z,25.02
2023-01-17T00:21:02.195Z,24.99
2023-01-17T00:23:50.495Z,25.00
2023-01-17T00:26:21.553Z,24.97
2023-01-17T00:28:51.747Z,24.96
2023-01-17T00:31:21.992Z,24.96
2023-01-17T00:33:51.944Z,24.93
2023-01-17T00:36:22.265Z,24.94
2023-01-17T00:38:52.185Z,24.93
2023-01-17T00:41:21.909Z,24.87
2023-01-17T00:44:10.095Z,24.89
2023-01-17T00:46:58.461Z,24.91
2023-01-17T00:49:46.930Z,24.87
2023-01-17T00:52:35.116Z,24.84
2023-01-17T00:55:23.439Z,24.79
2023-01-17T00:58:11.791Z,24.82
2023-01-17T01:01:00.282Z,24.82
2023-01-17T01:03:48.645Z,24.72
2023-01-17T01:06:36.964Z,24.75
2023-01-17T01:09:25.087Z,24.73
2023-01-17T01:12:13.435Z,24.69
2023-01-17T01:15:01.753Z,24.66
2023-01-17T01:17:50.040Z,24.69
2023-01-17T01:20:38.315Z,24.68
2023-01-17T01:23:26.624Z,24.70
2023-01-17T01:26:15.110Z,24.66
2023-01-17T01:29:03.290Z,24.63
2023-01-17T01:31:51.737Z,24.63
2023-01-17T01:34:22.221Z,24.55
2023-01-17T01:36:52.413Z,24.55
2023-01-17T01:39:22.949Z,24.52
2023-01-17T01:41:53.339Z,24.51
2023-01-17T01:44:41.180Z,24.55
2023-01-17T01:47:24.760Z,24.52
2023-01-17T01:49:55.133Z,24.56
2023-01-17T01:52:30.504Z,24.52
2023-01-17T01:55:03.949Z,24.53
2023-01-17T01:57:39.556Z,24.53
2023-01-17T02:00:23.333Z,24.51
2023-01-17T02:02:55.251Z,24.51
2023-01-17T02:05:28.483Z,24.47
2023-01-17T02:08:08.864Z,24.38
2023-01-17T02:10:42.276Z,24.33
2023-01-17T02:13:14.714Z,24.30
2023-01-17T02:15:57.540Z,24.33
2023-01-17T02:19:07.497Z,24.30
2023-01-17T02:22:03.067Z,24.38
2023-01-17T02:25:17.473Z,24.40
2023-01-17T02:28:09.721Z,24.30
2023-01-17T02:30:50.440Z,24.26
2023-01-17T02:33:58.387Z,24.24
2023-01-17T02:36:34.408Z,24.32
2023-01-17T02:39:22.312Z,24.39
2023-01-17T02:42:19.324Z,24.30
2023-01-17T02:44:49.575Z,24.38
2023-01-17T02:47:31.328Z,24.24
2023-01-17T02:50:15.515Z,24.21
2023-01-17T02:53:36.077Z,24.17
2023-01-17T02:56:22.346Z,24.19
2023-01-17T02:59:33.587Z,24.07
2023-01-17T03:02:09.465Z,24.07
2023-01-17T03:05:06.813Z,23.94
2023-01-17T03:07:37.902Z,24.09
2023-01-17T03:10:09.816Z,24.15
2023-01-17T03:12:41.463Z,24.09
2023-01-17T03:15:16.449Z,24.02
2023-01-17T03:17:51.078Z,23.98
2023-01-17T03:20:22.680Z,23.97
2023-01-17T03:22:53.020Z,23.93
2023-01-17T03:25:23.160Z,23.88
2023-01-17T03:27:52.882Z,23.77
2023-01-17T03:30:24.296Z,23.77
2023-01-17T03:32:54.580Z,23.81
2023-01-17T03:35:24.808Z,23.78
2023-01-17T03:37:54.935Z,23.68
2023-01-17T03:40:25.456Z,23.75
2023-01-17T03:42:55.853Z,23.73
2023-01-17T03:45:26.089Z,23.58
2023-01-17T03:47:58.071Z,23.47
2023-01-17T03:50:28.498Z,23.57
2023-01-17T03:52:58.870Z,23.57
2023-01-17T03:55:29.061Z,23.63
2023-01-17T03:57:58.960Z,23.49
2023-01-17T04:00:29.085Z,23.42
2023-01-17T04:02:58.894Z,23.56
2023-01-17T04:05:29.015Z,23.40
2023-01-17T04:07:58.802Z,23.30
2023-01-17T04:10:28.718Z,23.40
2023-01-17T04:12:58.786Z,23.53
2023-01-17T04:15:28.828Z,23.63
2023-01-17T04:17:59.271Z,23.66
2023-01-17T04:20:38.318Z,23.67
2023-01-17T04:23:08.969Z,23.67
2023-01-17T04:25:39.408Z,23.66
2023-01-17T04:28:09.696Z,23.61
2023-01-17T04:30:40.042Z,23.63
2023-01-17T04:33:10.638Z,23.63
2023-01-17T04:35:40.593Z,23.61
2023-01-17T04:38:10.514Z,23.61
2023-01-17T04:40:40.170Z,23.60
2023-01-17T04:43:10.604Z,23.54
2023-01-17T04:45:40.812Z,23.50
2023-01-17T04:48:13.831Z,23.46
2023-01-17T04:50:43.938Z,23.43
2023-01-17T04:53:14.164Z,23.36
2023-01-17T04:55:48.157Z,23.29
2023-01-17T04:58:19.103Z,23.26
2023-01-17T05:00:52.102Z,23.06
2023-01-17T05:03:23.897Z,22.94
2023-01-17T05:05:54.087Z,23.02
2023-01-17T05:08:24.403Z,23.02
2023-01-17T05:10:54.658Z,23.02
2023-01-17T05:13:24.810Z,23.10
2023-01-17T05:15:55.106Z,23.16
2023-01-17T05:18:25.361Z,23.03
2023-01-17T05:20:55.667Z,22.96
2023-01-17T05:23:26.564Z,23.00
2023-01-17T05:25:56.808Z,23.12
2023-01-17T05:28:26.951Z,23.12
2023-01-17T05:30:56.629Z,23.08
2023-01-17T05:33:26.638Z,23.06
2023-01-17T05:35:56.958Z,23.12
2023-01-17T05:38:27.272Z,23.02
2023-01-17T05:41:00.279Z,22.88
2023-01-17T05:43:31.137Z,22.96
2023-01-17T05:46:01.281Z,22.98
2023-01-17T05:48:30.894Z,22.95
2023-01-17T05:51:01.173Z,22.81
2023-01-17T05:53:31.425Z,22.81
2023-01-17T05:56:01.610Z,22.84
2023-01-17T05:58:31.409Z,22.92
2023-01-17T06:01:01.410Z,22.99
2023-01-17T06:03:32.487Z,22.88
2023-01-17T06:06:02.592Z,22.76
2023-01-17T06:08:32.955Z,22.69
2023-01-17T06:11:03.180Z,22.76
2023-01-17T06:13:33.896Z,22.82
2023-01-17T06:16:05.363Z,22.82
2023-01-17T06:18:35.695Z,22.69
2023-01-17T06:21:06.014Z,22.61
2023-01-17T06:23:36.332Z,22.65
2023-01-17T06:26:06.947Z,22.59
2023-01-17T06:28:37.455Z,22.54
2023-01-17T06:31:10.000Z,22.55
2023-01-17T06:33:40.393Z,22.61
2023-01-17T06:36:10.921Z,22.69
2023-01-17T06:38:41.022Z,22.59
2023-01-17T06:41:11.217Z,22.44
2023-01-17T06:43:41.616Z,22.44
2023-01-17T06:46:11.874Z,22.41
2023-01-17T06:48:44.781Z,22.33
2023-01-17T06:51:14.869Z,22.27
2023-01-17T06:53:45.771Z,22.24
2023-01-17T06:56:16.581Z,22.30
2023-01-17T06:58:50.090Z,22.27
2023-01-17T07:01:21.201Z,22.25
2023-01-17T07:03:51.631Z,22.40
2023-01-17T07:06:22.406Z,22.51
2023-01-17T07:08:52.493Z,22.54
2023-01-17T07:11:22.734Z,22.45
2023-01-17T07:13:52.914Z,22.52
2023-01-17T07:16:22.612Z,22.59
2023-01-17T07:18:53.044Z,22.62
2023-01-17T07:21:23.831Z,22.64
2023-01-17T07:23:54.043Z,22.61
2023-01-17T07:26:24.253Z,22.55
2023-01-17T07:28:53.851Z,22.44
2023-01-17T07:31:23.755Z,22.49
2023-01-17T07:33:53.752Z,22.58
2023-01-17T07:36:23.739Z,22.55
2023-01-17T07:38:53.792Z,22.51
2023-01-17T07:41:24.194Z,22.47
2023-01-17T07:43:56.337Z,22.34
2023-01-17T07:46:26.810Z,22.34
2023-01-17T07:48:56.782Z,22.41
2023-01-17T07:51:26.661Z,22.48
2023-01-17T07:53:56.585Z,22.47
2023-01-17T07:56:26.711Z,22.47
2023-01-17T07:58:56.883Z,22.51
2023-01-17T08:01:26.726Z,22.52
2023-01-17T08:03:56.670Z,22.49
2023-01-17T08:06:27.874Z,22.45
2023-01-17T08:09:00.222Z,22.37
2023-01-17T08:11:30.408Z,22.20
2023-01-17T08:14:00.927Z,22.28
2023-01-17T08:16:31.211Z,22.35
2023-01-17T08:19:01.427Z,22.28
2023-01-17T08:21:31.557Z,22.11
2023-01-17T08:24:01.353Z,22.03
2023-01-17T08:26:31.256Z,22.07
2023-01-17T08:29:02.274Z,22.20
2023-01-17T08:31:34.792Z,22.22
2023-01-17T08:34:05.296Z,22.20
2023-01-17T08:36:35.483Z,22.18
2023-01-17T08:39:05.202Z,22.14
2023-01-17T08:41:35.038Z,22.13
2023-01-17T08:44:04.863Z,22.21
2023-01-17T08:46:34.855Z,22.27
2023-01-17T08:49:05.035Z,22.38
2023-01-17T08:51:34.699Z,22.43
2023-01-17T08:54:04.739Z,22.44
2023-01-17T08:56:34.979Z,22.43
2023-01-17T08:59:05.462Z,22.43
2023-01-17T09:01:41.991Z,22.48
2023-01-17T09:04:13.683Z,22.49
2023-01-17T09:06:49.454Z,22.49
2023-01-17T09:09:20.715Z,22.51
2023-01-17T09:11:50.813Z,22.57
2023-01-17T09:14:21.003Z,22.59
2023-01-17T09:16:52.580Z,22.64
2023-01-17T09:19:22.977Z,22.68
2023-01-17T09:21:52.995Z,22.71
2023-01-17T09:24:22.720Z,22.67
2023-01-17T09:26:52.680Z,22.68
2023-01-17T09:29:23.120Z,22.78
2023-01-17T09:31:52.702Z,22.88
2023-01-17T09:34:22.989Z,22.98
2023-01-17T09:36:53.255Z,23.03
2023-01-17T09:39:23.441Z,23.06
2023-01-17T09:42:11.720Z,23.16
2023-01-17T09:44:53.249Z,23.24
2023-01-17T09:47:41.714Z,23.27
2023-01-17T09:50:16.504Z,23.37
2023-01-17T09:52:47.042Z,23.42
2023-01-17T09:55:19.331Z,23.49
2023-01-17T09:58:02.818Z,23.57
2023-01-17T10:01:18.076Z,23.61
2023-01-17T10:04:13.802Z,23.70
2023-01-17T10:07:14.919Z,23.77
2023-01-17T10:10:07.084Z,23.84
2023-01-17T10:13:12.769Z,23.93
2023-01-17T10:16:13.617Z,23.94
2023-01-17T10:19:21.739Z,24.05
2023-01-17T10:22:18.920Z,24.09
2023-01-17T10:24:58.279Z,24.18
2023-01-17T10:27:35.424Z,24.28
2023-01-17T10:30:17.144Z,24.35
2023-01-17T10:32:50.872Z,24.48
2023-01-17T10:35:31.418Z,24.52
2023-01-17T10:38:05.127Z,24.58
2023-01-17T10:40:52.976Z,24.65
2023-01-17T10:43:53.342Z,24.72
2023-01-17T10:46:48.483Z,24.83
2023-01-17T10:49:24.998Z,24.91
2023-01-17T10:52:01.076Z,25.02
2023-01-17T10:54:46.633Z,25.14
2023-01-17T10:57:24.630Z,25.16
2023-01-17T10:59:59.696Z,25.20
2023-01-17T11:02:34.448Z,25.31
2023-01-17T11:05:15.924Z,25.37
2023-01-17T11:08:18.943Z,25.40
2023-01-17T11:10:55.466Z,25.48
2023-01-17T11:13:37.865Z,25.60
2023-01-17T11:16:18.034Z,25.68
2023-01-17T11:18:49.985Z,25.72
2023-01-17T11:21:24.469Z,25.88
2023-01-17T11:24:00.439Z,26.01
2023-01-17T11:26:36.157Z,26.10
2023-01-17T11:29:29.703Z,26.22
2023-01-17T11:32:19.374Z,26.30
2023-01-17T11:35:22.450Z,26.40
2023-01-17T11:38:04.900Z,26.60
2023-01-17T11:40:42.091Z,26.69
2023-01-17T11:43:19.717Z,26.64
2023-01-17T11:46:15.780Z,26.87
2023-01-17T11:48:53.907Z,27.05
2023-01-17T11:51:34.788Z,27.21
2023-01-17T11:54:18.543Z,27.32
2023-01-17T11:56:48.867Z,27.53
2023-01-17T11:59:25.315Z,27.69
2023-01-17T12:02:23.034Z,27.83
2023-01-17T12:05:09.549Z,27.89
2023-01-17T12:07:58.947Z,27.99
2023-01-17T12:10:39.199Z,28.09
2023-01-17T12:14:00.547Z,28.17
2023-01-17T12:16:45.747Z,28.13
2023-01-17T12:19:47.880Z,28.21
2023-01-17T12:22:54.613Z,28.36
2023-01-17T12:25:55.823Z,28.57
2023-01-17T12:29:02.129Z,28.76
2023-01-17T12:31:47.371Z,28.57
2023-01-17T12:34:31.784Z,28.60
2023-01-17T12:37:38.195Z,28.58
2023-01-17T12:40:37.303Z,28.92
2023-01-17T12:43:15.990Z,29.03
2023-01-17T12:45:49.114Z,29.19
2023-01-17T12:48:23.937Z,29.08
2023-01-17T12:50:56.348Z,29.16
2023-01-17T12:53:42.115Z,29.27
2023-01-17T12:56:15.081Z,29.35
2023-01-17T12:58:50.399Z,29.40
2023-01-17T13:01:23.960Z,29.67
2023-01-17T13:04:13.265Z,29.57
2023-01-17T13:06:55.368Z,29.46
2023-01-17T13:09:26.480Z,29.39
2023-01-17T13:12:12.109Z,29.46
2023-01-17T13:14:42.693Z,29.57
2023-01-17T13:17:28.219Z,29.46
2023-01-17T13:20:35.031Z,29.72
2023-01-17T13:23:35.205Z,30.05
2023-01-17T13:26:09.373Z,30.20
2023-01-17T13:29:11.067Z,30.24
2023-01-17T13:31:58.693Z,29.97
2023-01-17T13:34:41.797Z,30.46
2023-01-17T13:37:30.349Z,30.21
2023-01-17T13:40:12.095Z,30.07
2023-01-17T13:43:03.845Z,30.29
2023-01-17T13:45:38.247Z,30.34
2023-01-17T13:48:15.790Z,30.24
2023-01-17T13:50:54.141Z,30.34
2023-01-17T13:53:44.671Z,30.82
2023-01-17T13:56:28.002Z,31.10
2023-01-17T13:59:04.087Z,31.34
2023-01-17T14:01:35.890Z,31.57
2023-01-17T14:04:15.321Z,31.60
2023-01-17T14:06:51.283Z,31.57
2023-01-17T14:09:28.343Z,31.54
2023-01-17T14:12:21.028Z,31.20
2023-01-17T14:14:53.974Z,31.82
2023-01-17T14:17:31.222Z,31.87
2023-01-17T14:20:27.103Z,31.99
2023-01-17T14:23:03.876Z,32.02
2023-01-17T14:25:42.837Z,32.28
2023-01-17T14:28:39.015Z,32.69
2023-01-17T14:31:12.683Z,32.01
2023-01-17T14:33:43.918Z,31.20
2023-01-17T14:36:30.015Z,31.09
2023-01-17T14:39:00.170Z,30.99
2023-01-17T14:41:31.953Z,30.78
2023-01-17T14:44:02.400Z,30.82
2023-01-17T14:46:34.152Z,32.05
2023-01-17T14:49:07.446Z,32.09
2023-01-17T14:51:38.477Z,32.18
2023-01-17T14:54:28.870Z,32.77
2023-01-17T14:57:24.422Z,33.45
2023-01-17T15:00:18.601Z,32.97
2023-01-17T15:02:51.876Z,31.89
2023-01-17T15:05:24.264Z,31.38
2023-01-17T15:07:57.563Z,31.40
2023-01-17T15:10:32.929Z,31.89
2023-01-17T15:13:10.412Z,31.80
2023-01-17T15:15:43.207Z,31.70
2023-01-17T15:18:20.767Z,32.09
2023-01-17T15:21:06.331Z,33.18
2023-01-17T15:23:45.056Z,32.76
2023-01-17T15:26:18.597Z,32.25
2023-01-17T15:28:49.410Z,32.15
2023-01-17T15:31:47.063Z,32.11
2023-01-17T15:34:32.930Z,31.75
2023-01-17T15:37:09.235Z,31.77
2023-01-17T15:39:43.562Z,32.69
2023-01-17T15:42:29.172Z,32.88
2023-01-17T15:45:03.757Z,32.32
2023-01-17T15:47:42.093Z,32.42
2023-01-17T15:50:33.188Z,33.33
2023-01-17T15:53:07.483Z,33.48
2023-01-17T15:55:40.247Z,32.53
2023-01-17T15:58:30.678Z,33.50
2023-01-17T16:01:01.284Z,33.95
2023-01-17T16:03:32.675Z,33.86
2023-01-17T16:06:05.674Z,33.37
2023-01-17T16:08:40.775Z,33.43
2023-01-17T16:11:14.554Z,32.53
2023-01-17T16:13:48.433Z,32.43
2023-01-17T16:16:24.936Z,32.26
2023-01-17T16:19:01.736Z,32.86
2023-01-17T16:21:33.521Z,32.11
2023-01-17T16:24:04.349Z,31.94
2023-01-17T16:26:34.893Z,32.66
2023-01-17T16:29:05.157Z,31.78
2023-01-17T16:31:35.677Z,32.39
2023-01-17T16:34:13.426Z,32.77
2023-01-17T16:36:44.711Z,33.14
2023-01-17T16:39:16.554Z,33.34
2023-01-17T16:41:46.706Z,33.41
2023-01-17T16:44:17.921Z,33.18
2023-01-17T16:46:48.109Z,33.20
2023-01-17T16:49:19.769Z,33.23
2023-01-17T16:51:51.213Z,32.39
2023-01-17T16:54:21.403Z,32.73
2023-01-17T16:56:51.748Z,32.39
2023-01-17T16:59:21.971Z,32.97
2023-01-17T17:02:12.840Z,33.13
2023-01-17T17:04:43.735Z,33.58
2023-01-17T17:07:13.993Z,33.33
2023-01-17T17:09:44.203Z,33.44
2023-01-17T17:12:14.508Z,32.79
2023-01-17T17:14:44.748Z,32.08
2023-01-17T17:17:15.217Z,33.04
2023-01-17T17:19:45.464Z,32.37
2023-01-17T17:22:15.841Z,31.91
2023-01-17T17:24:46.095Z,31.92
2023-01-17T17:27:19.294Z,32.31
2023-01-17T17:29:49.436Z,31.75
2023-01-17T17:32:19.702Z,31.53
2023-01-17T17:34:52.087Z,31.88
2023-01-17T17:37:24.064Z,32.09
2023-01-17T17:39:54.282Z,32.36
2023-01-17T17:42:25.278Z,32.52
2023-01-17T17:44:55.583Z,32.55
2023-01-17T17:47:25.800Z,32.51
2023-01-17T17:49:56.069Z,31.89
2023-01-17T17:52:26.848Z,32.08
2023-01-17T17:54:57.012Z,31.84
2023-01-17T17:57:27.317Z,31.74
2023-01-17T17:59:57.944Z,32.11
2023-01-17T18:02:28.503Z,32.04
2023-01-17T18:04:59.268Z,31.95
2023-01-17T18:07:31.856Z,31.98
2023-01-17T18:10:02.113Z,31.73
2023-01-17T18:12:32.307Z,31.77
2023-01-17T18:15:02.490Z,32.21
2023-01-17T18:17:32.823Z,31.89
2023-01-17T18:20:03.007Z,31.47
2023-01-17T18:22:35.288Z,32.01
2023-01-17T18:25:05.687Z,31.74
2023-01-17T18:27:35.977Z,31.91
2023-01-17T18:30:06.717Z,32.14
2023-01-17T18:32:36.913Z,31.91
2023-01-17T18:35:08.129Z,31.94
2023-01-17T18:37:38.958Z,31.94
2023-01-17T18:40:09.549Z,32.02
2023-01-17T18:42:40.236Z,32.22
2023-01-17T18:45:11.015Z,32.32
2023-01-17T18:47:41.327Z,32.40
2023-01-17T18:50:11.945Z,32.29
2023-01-17T18:52:42.184Z,32.15
2023-01-17T18:55:12.526Z,32.18
2023-01-17T18:57:42.983Z,32.22
2023-01-17T19:00:16.052Z,32.49
2023-01-17T19:02:50.151Z,32.22
2023-01-17T19:05:22.694Z,32.29
2023-01-17T19:07:53.185Z,31.96
2023-01-17T19:10:23.663Z,32.09
2023-01-17T19:12:53.622Z,31.84
2023-01-17T19:15:23.973Z,31.06
2023-01-17T19:17:54.457Z,31.09
2023-01-17T19:20:24.858Z,31.54
2023-01-17T19:22:55.178Z,31.67
2023-01-17T19:25:26.808Z,31.48
2023-01-17T19:27:57.411Z,30.95
2023-01-17T19:30:27.539Z,30.83
2023-01-17T19:32:58.150Z,30.90
2023-01-17T19:35:30.433Z,30.68
2023-01-17T19:38:00.633Z,30.25
2023-01-17T19:40:30.877Z,30.10
2023-01-17T19:43:01.169Z,29.97
2023-01-17T19:45:31.413Z,30.18
2023-01-17T19:48:01.661Z,30.45
2023-01-17T19:50:31.813Z,30.28
2023-01-17T19:53:01.358Z,30.17
2023-01-17T19:55:31.507Z,29.59
2023-01-17T19:58:01.768Z,29.52
2023-01-17T20:00:31.757Z,29.59
2023-01-17T20:03:01.944Z,29.64
2023-01-17T20:05:33.508Z,29.54
2023-01-17T20:08:04.050Z,29.20
2023-01-17T20:10:34.352Z,29.16
2023-01-17T20:13:06.012Z,29.22
2023-01-17T20:15:36.271Z,29.08
2023-01-17T20:18:06.628Z,29.01
2023-01-17T20:20:48.912Z,29.03
2023-01-17T20:23:26.419Z,29.11
2023-01-17T20:26:02.898Z,29.09
2023-01-17T20:28:35.479Z,29.12
2023-01-17T20:31:15.574Z,29.11
2023-01-17T20:33:48.145Z,28.92
2023-01-17T20:36:24.123Z,28.65
2023-01-17T20:38:55.676Z,28.62
2023-01-17T20:41:30.150Z,28.44
2023-01-17T20:44:01.774Z,28.47
2023-01-17T20:46:37.141Z,28.31
2023-01-17T20:49:17.571Z,28.21
2023-01-17T20:51:48.567Z,28.36
2023-01-17T20:54:20.519Z,28.27
2023-01-17T20:56:50.818Z,28.21
2023-01-17T20:59:25.625Z,27.99
2023-01-17T21:01:55.843Z,27.86
2023-01-17T21:04:27.159Z,27.85
2023-01-17T21:06:57.577Z,27.85
2023-01-17T21:09:27.859Z,27.90
2023-01-17T21:12:02.283Z,27.92
2023-01-17T21:14:32.690Z,27.92
2023-01-17T21:17:03.009Z,27.78
2023-01-17T21:19:33.333Z,27.67
2023-01-17T21:22:06.518Z,27.66
2023-01-17T21:24:37.555Z,27.51
2023-01-17T21:27:07.537Z,27.32
2023-01-17T21:29:37.828Z,27.32
2023-01-17T21:32:09.914Z,27.21
2023-01-17T21:34:40.363Z,27.16
2023-01-17T21:37:10.515Z,27.08
2023-01-17T21:39:40.883Z,27.04
2023-01-17T21:42:11.071Z,27.01
2023-01-17T21:44:40.573Z,27.00
2023-01-17T21:47:10.377Z,26.97
2023-01-17T21:49:40.734Z,26.98
2023-01-17T21:52:13.562Z,26.88
2023-01-17T21:55:01.890Z,26.87
2023-01-17T21:57:50.116Z,26.79
2023-01-17T22:00:20.527Z,26.77
2023-01-17T22:02:50.809Z,26.76
2023-01-17T22:05:21.350Z,26.76
2023-01-17T22:08:11.794Z,26.73
2023-01-17T22:10:48.152Z,26.61
2023-01-17T22:13:20.146Z,26.59
2023-01-17T22:16:00.022Z,26.51
2023-01-17T22:18:30.656Z,26.50
2023-01-17T22:21:07.717Z,26.43
2023-01-17T22:23:38.163Z,26.42
2023-01-17T22:26:13.567Z,26.33
2023-01-17T22:28:43.996Z,26.37
2023-01-17T22:31:26.182Z,26.28
2023-01-17T22:33:59.490Z,26.25
2023-01-17T22:36:30.823Z,26.26
2023-01-17T22:39:01.330Z,26.26
2023-01-17T22:41:33.237Z,26.28
2023-01-17T22:44:04.099Z,26.19
2023-01-17T22:46:38.349Z,26.15
2023-01-17T22:49:09.621Z,26.10
2023-01-17T22:51:40.166Z,26.15
2023-01-17T22:54:12.543Z,26.06
2023-01-17T22:56:42.835Z,26.05
2023-01-17T22:59:13.361Z,26.02
2023-01-17T23:01:43.875Z,26.01
2023-01-17T23:04:15.754Z,26.01
2023-01-17T23:06:46.116Z,25.88
2023-01-17T23:09:18.447Z,25.82
2023-01-17T23:11:53.896Z,25.85
2023-01-17T23:14:30.117Z,25.82
2023-01-17T23:17:17.892Z,25.88
2023-01-17T23:19:53.635Z,25.86
2023-01-17T23:22:28.103Z,25.85
2023-01-17T23:24:58.230Z,25.81
2023-01-17T23:27:58.578Z,25.77
2023-01-17T23:30:38.613Z,25.74
2023-01-17T23:33:12.045Z,25.78
2023-01-17T23:35:44.857Z,25.72
2023-01-17T23:38:32.525Z,25.68
2023-01-17T23:41:28.595Z,25.65
2023-01-17T23:44:00.159Z,25.69
2023-01-17T23:46:32.736Z,25.69
2023-01-17T23:49:02.968Z,25.64
2023-01-17T23:51:33.224Z,25.64
2023-01-17T23:54:06.596Z,25.61
2023-01-17T23:56:36.926Z,25.60
2023-01-17T23:59:07.215Z,25.55
